Time;durP1;ratioP1;P1;durP2;ratioP2;P2;SDS_P1;SDS_P2;PMS_P1;PMS_P2;Temp;Humidity;BMP_temperature;BMP_pressure;BME280_temperature;BME280_humidity;BME280_pressure;Samples;Min_cycle;Max_cycle;Signal;HPM_P1;HPM_P2
2022/02/22 00:00:10;;;;;;;39.55;7.47;;;;;;;4.27;100.00;101595.53;5073443;28;20056;-70
2022/02/22 00:02:35;;;;;;;39.20;7.85;;;;;;;4.19;100.00;101580.41;5073362;28;20024;-70
2022/02/22 00:05:01;;;;;;;42.10;7.85;;;;;;;4.15;100.00;101588.94;5069174;28;20546;-70
2022/02/22 00:07:27;;;;;;;42.95;7.45;;;;;;;4.14;100.00;101594.13;5073162;28;20103;-70
2022/02/22 00:09:52;;;;;;;39.58;8.07;;;;;;;4.15;100.00;101596.81;5072891;28;20020;-70
2022/02/22 00:12:17;;;;;;;44.40;8.40;;;;;;;4.14;100.00;101602.84;5073421;28;20025;-70
2022/02/22 00:14:43;;;;;;;34.47;6.65;;;;;;;4.18;100.00;101611.75;5073036;28;20379;-70
2022/02/22 00:17:09;;;;;;;39.15;8.10;;;;;;;4.13;100.00;101623.72;5073067;28;20082;-70
2022/02/22 00:19:34;;;;;;;40.92;8.10;;;;;;;4.07;100.00;101619.13;5073036;28;20023;-70
2022/02/22 00:21:59;;;;;;;41.47;8.02;;;;;;;3.98;100.00;101621.34;5072688;28;20387;-70
2022/02/22 00:24:25;;;;;;;39.72;7.97;;;;;;;3.99;100.00;101617.88;5073127;28;20032;-71
2022/02/22 00:26:51;;;;;;;37.50;7.00;;;;;;;3.97;100.00;101622.16;5072941;28;20015;-70
2022/02/22 00:29:16;;;;;;;38.30;7.50;;;;;;;3.93;100.00;101615.00;5072852;28;20032;-70
2022/02/22 00:31:41;;;;;;;37.50;7.18;;;;;;;3.90;100.00;101612.25;5072826;28;20032;-71
2022/02/22 00:34:07;;;;;;;44.25;7.38;;;;;;;3.81;100.00;101617.97;5073085;28;20028;-71
2022/02/22 00:36:34;;;;;;;35.70;7.10;;;;;;;3.80;100.00;101626.63;5072977;28;20040;-71
2022/02/22 00:38:59;;;;;;;38.00;7.38;;;;;;;3.88;100.00;101637.47;5072685;28;20036;-71
2022/02/22 00:41:25;;;;;;;37.88;7.25;;;;;;;3.82;100.00;101636.34;5072885;28;20379;-70
2022/02/22 00:43:50;;;;;;;39.08;6.90;;;;;;;3.87;100.00;101644.41;5072544;28;20119;-70
2022/02/22 00:46:16;;;;;;;38.60;7.63;;;;;;;3.90;100.00;101654.13;5072889;28;20459;-71
2022/02/22 00:48:42;;;;;;;44.25;8.02;;;;;;;3.91;100.00;101655.91;5072560;28;20028;-70
2022/02/22 00:51:07;;;;;;;43.20;7.97;;;;;;;3.81;100.00;101663.31;5072526;28;20025;-71
2022/02/22 00:53:33;;;;;;;41.05;7.70;;;;;;;3.79;100.00;101657.16;5072322;28;20349;-71
2022/02/22 00:55:58;;;;;;;36.45;7.18;;;;;;;3.70;100.00;101661.97;5072702;28;20047;-72
2022/02/22 00:58:24;;;;;;;35.75;7.22;;;;;;;3.77;100.00;101664.03;5072362;28;20025;-71
2022/02/22 01:00:49;;;;;;;43.25;7.75;;;;;;;3.68;100.00;101674.06;5072866;28;20079;-71
2022/02/22 01:03:14;;;;;;;39.10;7.00;;;;;;;3.63;100.00;101676.47;5072764;28;20025;-71
2022/02/22 01:05:40;;;;;;;36.45;6.85;;;;;;;3.61;100.00;101682.44;5072355;28;20047;-71
2022/02/22 01:08:05;;;;;;;38.47;7.20;;;;;;;3.62;100.00;101679.91;5072574;28;20111;-71
2022/02/22 01:10:31;;;;;;;37.55;6.82;;;;;;;3.47;100.00;101685.34;5069879;28;20033;-71
2022/02/22 01:12:57;;;;;;;41.88;7.03;;;;;;;3.37;100.00;101675.28;5071116;28;20115;-71
2022/02/22 01:15:23;;;;;;;41.95;7.43;;;;;;;3.34;100.00;101671.63;5072428;28;20040;-71
2022/02/22 01:17:48;;;;;;;37.38;6.85;;;;;;;3.32;100.00;101679.41;5072282;28;20029;-71
2022/02/22 01:20:14;;;;;;;43.05;7.70;;;;;;;3.27;100.00;101675.66;5072247;28;20029;-71
2022/02/22 01:22:40;;;;;;;42.67;7.78;;;;;;;3.17;100.00;101676.94;5072431;28;20035;-71
2022/02/22 01:25:08;;;;;;;41.25;7.82;;;;;;;3.02;100.00;101682.31;5072148;28;20501;-71
2022/02/22 01:27:34;;;;;;;37.65;7.40;;;;;;;2.91;100.00;101680.91;5072137;28;20024;-71
2022/02/22 01:29:59;;;;;;;37.03;8.10;;;;;;;2.79;100.00;101689.03;5072447;28;20360;-71
2022/02/22 01:32:25;;;;;;;40.00;7.80;;;;;;;2.74;100.00;101683.59;5072168;28;20048;-71
2022/02/22 01:34:50;;;;;;;41.40;7.75;;;;;;;2.67;100.00;101685.81;5072571;28;20032;-71
2022/02/22 01:37:16;;;;;;;37.53;7.72;;;;;;;2.60;100.00;101695.06;5072134;28;20486;-71
2022/02/22 01:39:41;;;;;;;39.58;7.63;;;;;;;2.55;100.00;101689.59;5068253;28;20107;-71
2022/02/22 01:42:07;;;;;;;38.60;7.70;;;;;;;2.49;100.00;101691.00;5072206;28;20389;-71
2022/02/22 01:44:32;;;;;;;44.00;8.25;;;;;;;2.50;100.00;101684.97;5071757;28;20049;-70
2022/02/22 01:47:01;;;;;;;45.63;8.50;;;;;;;2.45;100.00;101687.34;5072019;28;20429;-70
2022/02/22 01:49:27;;;;;;;42.22;7.97;;;;;;;2.40;100.00;101676.69;5072256;28;20020;-70
2022/02/22 01:51:53;;;;;;;43.95;7.60;;;;;;;2.39;100.00;101677.50;5072277;28;20039;-70
2022/02/22 01:54:21;;;;;;;46.42;8.32;;;;;;;2.35;100.00;101685.09;5071897;28;20021;-70
2022/02/22 01:56:47;;;;;;;43.00;8.02;;;;;;;2.33;100.00;101689.31;5072086;28;20108;-70
2022/02/22 01:59:13;;;;;;;49.70;8.35;;;;;;;2.33;100.00;101679.78;5071811;28;20495;-70
2022/02/22 02:01:38;;;;;;;39.50;7.47;;;;;;;2.28;100.00;101689.09;5071793;28;20059;-70
2022/02/22 02:04:05;;;;;;;45.80;8.35;;;;;;;2.26;100.00;101689.00;5072292;28;20436;-70
2022/02/22 02:06:36;;;;;;;46.28;7.82;;;;;;;2.25;100.00;101701.97;5073104;28;20421;-70
2022/02/22 02:09:02;;;;;;;43.03;8.13;;;;;;;2.19;100.00;101694.72;5075588;28;20024;-70
2022/02/22 02:11:28;;;;;;;48.72;8.43;;;;;;;2.14;100.00;101697.91;5075472;28;20020;-69
2022/02/22 02:13:53;;;;;;;43.88;7.70;;;;;;;2.14;100.00;101703.13;5075016;28;20031;-70
2022/02/22 02:16:18;;;;;;;47.90;8.25;;;;;;;2.20;100.00;101698.22;5075275;28;20029;-70
2022/02/22 02:18:44;;;;;;;42.95;8.05;;;;;;;2.18;100.00;101689.44;5075423;28;20029;-70
2022/02/22 02:21:10;;;;;;;48.03;8.30;;;;;;;2.13;100.00;101677.88;5075052;28;20032;-70
2022/02/22 02:23:35;;;;;;;47.40;8.30;;;;;;;2.06;100.00;101687.97;5075080;28;20021;-70
2022/02/22 02:26:01;;;;;;;40.00;7.47;;;;;;;2.02;100.00;101687.72;5073934;28;20078;-70
2022/02/22 02:28:26;;;;;;;42.15;7.78;;;;;;;2.00;100.00;101690.25;5074855;28;20048;-70
2022/02/22 02:30:51;;;;;;;46.38;8.48;;;;;;;1.97;100.00;101694.44;5074885;28;20052;-72
2022/02/22 02:33:17;;;;;;;42.88;7.95;;;;;;;1.92;100.00;101702.91;5075115;28;20111;-72
2022/02/22 02:35:42;;;;;;;44.17;7.95;;;;;;;1.92;100.00;101704.59;5075187;28;20428;-72
2022/02/22 02:38:07;;;;;;;48.95;9.13;;;;;;;1.87;100.00;101708.69;5075096;28;20017;-72
2022/02/22 02:40:33;;;;;;;46.95;8.52;;;;;;;1.86;100.00;101707.78;5074917;28;20029;-72
2022/02/22 02:42:58;;;;;;;44.83;7.57;;;;;;;1.82;100.00;101712.75;5074841;28;20391;-72
2022/02/22 02:45:23;;;;;;;45.20;7.57;;;;;;;1.78;100.00;101708.16;5074620;28;20090;-72
2022/02/22 02:47:49;;;;;;;43.75;7.80;;;;;;;1.77;100.00;101711.63;5074677;28;20043;-71
2022/02/22 02:50:14;;;;;;;41.40;6.93;;;;;;;1.82;100.00;101710.13;5074679;28;20016;-72
2022/02/22 02:52:40;;;;;;;53.03;8.88;;;;;;;1.81;100.00;101706.66;5074776;28;20052;-71
2022/02/22 02:55:06;;;;;;;41.10;7.82;;;;;;;1.82;100.00;101698.03;5074765;28;20454;-71
2022/02/22 02:57:31;;;;;;;44.92;8.15;;;;;;;1.81;100.00;101703.16;5074460;28;20112;-72
2022/02/22 02:59:57;;;;;;;47.83;8.77;;;;;;;1.74;100.00;101697.59;5074896;28;20100;-72
2022/02/22 03:02:23;;;;;;;51.35;8.57;;;;;;;1.71;100.00;101701.75;5074543;28;20495;-71
2022/02/22 03:04:48;;;;;;;45.65;8.10;;;;;;;1.67;100.00;101710.22;5074392;28;20077;-72
2022/02/22 03:07:14;;;;;;;47.78;8.23;;;;;;;1.72;100.00;101720.09;5074561;28;20051;-71
2022/02/22 03:09:39;;;;;;;42.50;7.90;;;;;;;1.72;100.00;101716.59;5074314;28;20378;-72
2022/02/22 03:12:05;;;;;;;49.72;8.27;;;;;;;1.68;100.00;101715.50;5074456;28;20020;-71
2022/02/22 03:14:30;;;;;;;47.20;8.15;;;;;;;1.69;100.00;101725.13;5074512;28;20477;-71
2022/02/22 03:16:55;;;;;;;47.75;8.07;;;;;;;1.76;100.00;101717.63;5073679;28;20098;-71
2022/02/22 03:19:21;;;;;;;55.33;9.02;;;;;;;1.83;100.00;101723.25;5074201;28;20437;-71
2022/02/22 03:21:46;;;;;;;46.97;8.25;;;;;;;1.88;100.00;101726.13;5074124;28;20098;-71
2022/02/22 03:24:11;;;;;;;49.67;8.55;;;;;;;1.89;100.00;101722.69;5073943;28;20403;-71
2022/02/22 03:26:37;;;;;;;45.67;7.45;;;;;;;1.85;100.00;101728.53;5074038;28;20051;-71
2022/02/22 03:29:03;;;;;;;45.22;7.70;;;;;;;1.80;100.00;101728.31;5073648;28;20501;-71
2022/02/22 03:31:29;;;;;;;45.03;8.25;;;;;;;1.79;100.00;101733.44;5073630;28;20459;-71
2022/02/22 03:33:55;;;;;;;48.45;8.50;;;;;;;1.77;100.00;101728.16;5073969;28;20074;-72
2022/02/22 03:36:21;;;;;;;46.38;7.68;;;;;;;1.79;100.00;101730.84;5073586;28;20029;-72
2022/02/22 03:38:46;;;;;;;45.28;8.10;;;;;;;1.80;100.00;101740.47;5073681;28;20498;-72
2022/02/22 03:41:11;;;;;;;44.70;7.60;;;;;;;1.81;100.00;101739.66;5072357;28;20041;-71
2022/02/22 03:43:37;;;;;;;44.17;8.00;;;;;;;1.84;100.00;101739.81;5073342;28;20076;-71
2022/02/22 03:46:02;;;;;;;45.05;7.93;;;;;;;1.85;100.00;101736.38;5073554;28;20467;-71
2022/02/22 03:48:27;;;;;;;48.83;8.02;;;;;;;1.85;100.00;101741.59;5074054;28;20024;-71
2022/02/22 03:50:53;;;;;;;46.08;7.80;;;;;;;1.87;100.00;101739.97;5073688;28;20532;-71
2022/02/22 03:53:19;;;;;;;45.30;8.05;;;;;;;1.91;100.00;101731.50;5073577;28;20108;-71
2022/02/22 03:55:45;;;;;;;43.83;8.23;;;;;;;1.86;100.00;101731.25;5073749;28;20025;-71
2022/02/22 03:58:11;;;;;;;46.53;8.10;;;;;;;1.85;100.00;101728.53;5073249;28;20028;-71
2022/02/22 04:00:36;;;;;;;43.63;7.85;;;;;;;1.88;100.00;101736.56;5073295;28;20035;-72
2022/02/22 04:03:03;;;;;;;43.75;7.70;;;;;;;1.90;100.00;101732.31;5073166;28;20107;-72
2022/02/22 04:05:29;;;;;;;44.95;7.93;;;;;;;1.84;100.00;101722.44;5073119;28;20028;-71
2022/02/22 04:07:54;;;;;;;42.92;7.65;;;;;;;1.85;100.00;101721.66;5073249;28;20025;-72
2022/02/22 04:10:20;;;;;;;42.92;7.60;;;;;;;1.89;100.00;101717.47;5073109;28;20107;-72
2022/02/22 04:12:45;;;;;;;44.42;7.55;;;;;;;1.83;100.00;101717.16;5072961;28;20033;-72
2022/02/22 04:15:11;;;;;;;44.10;8.15;;;;;;;1.79;100.00;101726.53;5073416;28;20025;-71
2022/02/22 04:17:36;;;;;;;43.30;8.07;;;;;;;1.79;100.00;101730.84;5072891;28;20110;-71
2022/02/22 04:20:03;;;;;;;41.47;7.97;;;;;;;1.74;100.00;101734.09;5072832;28;20146;-72
2022/02/22 04:22:28;;;;;;;47.75;8.45;;;;;;;1.71;100.00;101733.91;5072913;28;20070;-72
2022/02/22 04:24:54;;;;;;;44.92;7.63;;;;;;;1.69;100.00;101727.75;5072834;28;20103;-71
2022/02/22 04:27:19;;;;;;;48.88;7.90;;;;;;;1.65;100.00;101733.59;5073120;28;20109;-71
2022/02/22 04:29:45;;;;;;;46.63;8.32;;;;;;;1.64;100.00;101737.00;5072239;28;20516;-71
2022/02/22 04:32:10;;;;;;;48.03;8.10;;;;;;;1.59;100.00;101730.66;5072659;28;20028;-70
2022/02/22 04:34:36;;;;;;;43.17;7.50;;;;;;;1.53;100.00;101728.59;5072666;28;20024;-71
2022/02/22 04:37:01;;;;;;;46.35;7.82;;;;;;;1.50;100.00;101737.94;5073169;28;20047;-70
2022/02/22 04:39:27;;;;;;;42.72;7.63;;;;;;;1.43;100.00;101741.94;5072791;28;20051;-70
2022/02/22 04:41:52;;;;;;;41.95;7.50;;;;;;;1.39;100.00;101746.06;5072559;28;20109;-71
2022/02/22 04:44:17;;;;;;;48.50;8.55;;;;;;;1.47;100.00;101741.31;5072826;28;20056;-70
2022/02/22 04:46:43;;;;;;;44.83;7.60;;;;;;;1.47;100.00;101736.09;5072661;28;20025;-70
2022/02/22 04:49:09;;;;;;;44.83;8.25;;;;;;;1.50;100.00;101744.06;5073088;28;20429;-70
2022/02/22 04:51:39;;;;;;;45.80;8.32;;;;;;;1.53;100.00;101738.13;5072763;28;20032;-70
2022/02/22 04:54:05;;;;;;;46.40;8.05;;;;;;;1.54;100.00;101735.63;5072502;28;20383;-70
2022/02/22 04:56:31;;;;;;;50.58;8.07;;;;;;;1.58;100.00;101744.50;5072923;28;20067;-70
2022/02/22 04:58:56;;;;;;;46.72;7.80;;;;;;;1.51;100.00;101747.56;5072535;28;20020;-70
2022/02/22 05:01:22;;;;;;;40.65;7.40;;;;;;;1.50;100.00;101758.78;5072388;28;20482;-70
2022/02/22 05:03:48;;;;;;;40.80;7.82;;;;;;;1.49;100.00;101750.09;5072671;28;20030;-70
2022/02/22 05:06:13;;;;;;;41.25;7.20;;;;;;;1.48;100.00;101750.00;5072475;28;20383;-70
2022/02/22 05:08:38;;;;;;;42.60;8.05;;;;;;;1.56;100.00;101749.63;5072377;28;20375;-71
2022/02/22 05:11:05;;;;;;;44.85;8.20;;;;;;;1.55;100.00;101749.53;5072788;28;20040;-71
2022/02/22 05:13:30;;;;;;;43.80;8.10;;;;;;;1.53;100.00;101741.63;5072331;28;20062;-71
2022/02/22 05:15:56;;;;;;;41.78;8.32;;;;;;;1.51;100.00;101739.75;5072494;28;20424;-71
2022/02/22 05:18:21;;;;;;;44.83;8.40;;;;;;;1.48;100.00;101750.91;5072457;28;20067;-71
2022/02/22 05:20:55;;;;;;;42.20;8.05;;;;;;;1.48;100.00;101753.50;5072133;28;20048;-71
2022/02/22 05:23:26;;;;;;;45.85;7.93;;;;;;;1.43;100.00;101759.25;5072509;28;20032;-71
2022/02/22 05:25:52;;;;;;;45.55;8.07;;;;;;;1.43;100.00;101760.19;5072302;28;20104;-71
2022/02/22 05:28:17;;;;;;;45.50;8.35;;;;;;;1.48;100.00;101755.22;5072285;28;20124;-71
2022/02/22 05:30:46;;;;;;;43.88;7.85;;;;;;;1.50;100.00;101757.13;5072335;28;20043;-71
2022/02/22 05:33:11;;;;;;;43.20;7.13;;;;;;;1.56;100.00;101774.81;5072557;28;20116;-71
2022/02/22 05:35:36;;;;;;;40.72;7.85;;;;;;;1.62;100.00;101762.09;5072052;28;20100;-71
2022/02/22 05:38:02;;;;;;;43.17;7.65;;;;;;;1.64;100.00;101763.06;5072400;28;20490;-71
2022/02/22 05:40:27;;;;;;;44.47;8.35;;;;;;;1.71;100.00;101775.63;5072137;28;20043;-71
2022/02/22 05:42:52;;;;;;;50.35;8.10;;;;;;;1.80;100.00;101779.56;5071802;28;20021;-71
2022/02/22 05:45:18;;;;;;;42.42;8.35;;;;;;;1.84;100.00;101776.31;5075674;28;20041;-71
2022/02/22 05:47:43;;;;;;;42.45;7.90;;;;;;;1.80;100.00;101763.94;5075984;28;20029;-71
2022/02/22 05:50:09;;;;;;;43.63;8.07;;;;;;;1.85;100.00;101765.06;5075569;28;20074;-70
2022/02/22 05:52:34;;;;;;;39.65;7.22;;;;;;;1.83;100.00;101764.97;5075887;28;20043;-70
2022/02/22 05:54:59;;;;;;;39.10;7.50;;;;;;;1.86;100.00;101772.06;5075758;28;20490;-70
2022/02/22 05:57:26;;;;;;;41.08;7.85;;;;;;;1.85;100.00;101768.59;5075953;28;20481;-70
2022/02/22 05:59:51;;;;;;;39.17;7.03;;;;;;;1.85;100.00;101767.66;5075542;28;20422;-71
2022/02/22 06:02:17;;;;;;;40.72;7.00;;;;;;;1.89;100.00;101769.63;5075719;28;20029;-70
2022/02/22 06:04:42;;;;;;;35.67;6.70;;;;;;;1.82;100.00;101768.41;5075408;28;20037;-70
2022/02/22 06:07:07;;;;;;;40.03;6.88;;;;;;;1.79;100.00;101767.34;5075237;28;20082;-71
2022/02/22 06:09:33;;;;;;;36.03;6.95;;;;;;;1.76;100.00;101768.06;5075535;28;20070;-70
2022/02/22 06:11:58;;;;;;;36.80;6.85;;;;;;;1.77;100.00;101759.44;5075206;28;20033;-71
2022/02/22 06:14:23;;;;;;;38.50;7.30;;;;;;;1.76;100.00;101772.38;5075739;28;20013;-70
2022/02/22 06:16:53;;;;;;;38.65;7.43;;;;;;;1.75;100.00;101779.31;5075256;28;20091;-70
2022/02/22 06:19:19;;;;;;;37.55;6.88;;;;;;;1.73;100.00;101779.25;5075174;28;20098;-70
2022/02/22 06:21:44;;;;;;;40.05;7.30;;;;;;;1.70;100.00;101767.72;5071337;28;20463;-70
2022/02/22 06:24:09;;;;;;;41.67;8.10;;;;;;;1.66;100.00;101777.09;5074968;28;20021;-70
2022/02/22 06:26:35;;;;;;;38.58;7.88;;;;;;;1.65;100.00;101764.88;5074995;28;20024;-70
2022/02/22 06:29:00;;;;;;;40.47;9.32;;;;;;;1.64;100.00;101767.41;5075121;28;20025;-70
2022/02/22 06:31:25;;;;;;;39.70;8.02;;;;;;;1.58;100.00;101770.56;5074919;28;20029;-71
2022/02/22 06:33:51;;;;;;;38.17;8.40;;;;;;;1.56;100.00;101753.94;5074943;28;20100;-71
2022/02/22 06:36:16;;;;;;;39.40;8.65;;;;;;;1.61;100.00;101759.41;5075051;28;20033;-71
2022/02/22 06:38:41;;;;;;;38.35;9.25;;;;;;;1.63;100.00;101756.09;5074878;28;20043;-73
2022/02/22 06:41:06;;;;;;;39.45;10.00;;;;;;;1.63;100.00;101766.50;5066685;28;20040;-72
2022/02/22 06:43:32;;;;;;;41.25;9.32;;;;;;;1.62;100.00;101759.50;5072238;28;20052;-72
2022/02/22 06:45:57;;;;;;;37.78;9.10;;;;;;;1.56;100.00;101769.59;5072454;28;20020;-72
2022/02/22 06:48:22;;;;;;;37.78;9.70;;;;;;;1.56;100.00;101757.44;5071988;28;20022;-72
2022/02/22 06:50:48;;;;;;;40.72;9.52;;;;;;;1.56;100.00;101764.38;5071634;28;20056;-72
2022/02/22 06:53:13;;;;;;;43.05;10.15;;;;;;;1.58;100.00;101767.94;5071631;28;20077;-72
2022/02/22 06:55:41;;;;;;;42.25;10.05;;;;;;;1.55;100.00;101773.00;5072474;28;20035;-71
2022/02/22 06:58:09;;;;;;;46.20;10.90;;;;;;;1.48;100.00;101770.84;5071904;28;20486;-72
2022/02/22 07:00:37;;;;;;;41.08;10.80;;;;;;;1.49;100.00;101768.34;5072024;28;20460;-73
2022/02/22 07:03:04;;;;;;;43.03;10.75;;;;;;;1.51;100.00;101766.69;5071792;28;20111;-72
2022/02/22 07:05:30;;;;;;;40.33;11.02;;;;;;;1.54;100.00;101752.94;5072199;28;20106;-71
2022/02/22 07:07:57;;;;;;;41.20;11.63;;;;;;;1.53;100.00;101758.97;5071516;28;20028;-72
2022/02/22 07:10:23;;;;;;;42.00;11.60;;;;;;;1.59;100.00;101747.97;5070493;28;20029;-72
2022/02/22 07:12:49;;;;;;;42.10;12.93;;;;;;;1.64;100.00;101743.94;5071786;28;20036;-71
2022/02/22 07:15:14;;;;;;;42.67;12.90;;;;;;;1.68;100.00;101753.72;5072060;28;20036;-71
2022/02/22 07:17:56;;;;;;;46.00;12.88;;;;;;;1.74;100.00;101747.13;5072016;28;20029;-71
2022/02/22 07:20:25;;;;;;;38.65;12.60;;;;;;;1.78;100.00;101753.41;5071484;28;20036;-72
2022/02/22 07:22:52;;;;;;;46.70;13.60;;;;;;;1.83;100.00;101743.22;5070898;28;20020;-73
2022/02/22 07:25:19;;;;;;;47.05;13.82;;;;;;;1.90;100.00;101748.84;5071644;28;20036;-72
2022/02/22 07:27:47;;;;;;;39.65;12.95;;;;;;;1.99;100.00;101740.63;5071748;28;20027;-71
2022/02/22 07:30:14;;;;;;;40.50;13.57;;;;;;;2.10;100.00;101743.81;5068639;28;20078;-72
2022/02/22 07:32:40;;;;;;;41.90;13.77;;;;;;;2.20;100.00;101746.09;5070975;28;20029;-72
2022/02/22 07:35:07;;;;;;;40.88;13.25;;;;;;;2.31;100.00;101749.25;5071486;28;20136;-72
2022/02/22 07:37:33;;;;;;;37.88;13.20;;;;;;;2.40;100.00;101741.00;5071569;28;20032;-72
2022/02/22 07:39:58;;;;;;;39.63;12.38;;;;;;;2.46;100.00;101743.06;5071108;28;20051;-73
2022/02/22 07:42:24;;;;;;;35.97;12.43;;;;;;;2.53;100.00;101732.09;5070914;28;20067;-71
2022/02/22 07:44:50;;;;;;;43.88;12.40;;;;;;;2.58;100.00;101728.03;5071102;28;20044;-72
2022/02/22 07:47:16;;;;;;;39.97;12.43;;;;;;;2.66;100.00;101723.19;5071404;28;20094;-71
2022/02/22 07:49:42;;;;;;;36.65;12.45;;;;;;;2.70;100.00;101720.81;5067926;28;20514;-71
2022/02/22 07:52:07;;;;;;;34.47;12.18;;;;;;;2.77;100.00;101722.91;5070617;28;20027;-72
2022/02/22 07:54:33;;;;;;;39.05;12.02;;;;;;;2.87;100.00;101706.00;5071045;28;20123;-73
2022/02/22 07:56:59;;;;;;;35.45;11.93;;;;;;;2.98;100.00;101703.88;5070456;28;20060;-71
2022/02/22 07:59:24;;;;;;;36.78;11.38;;;;;;;3.09;100.00;101699.22;5070297;28;20031;-72
2022/02/22 08:01:50;;;;;;;36.85;11.40;;;;;;;3.18;100.00;101696.13;5069938;28;20577;-72
2022/02/22 08:04:16;;;;;;;34.63;10.82;;;;;;;3.25;100.00;101693.00;5069749;28;20041;-72
2022/02/22 08:06:41;;;;;;;34.72;10.85;;;;;;;3.25;100.00;101685.16;5069932;28;20034;-72
2022/02/22 08:09:06;;;;;;;36.63;11.00;;;;;;;3.31;100.00;101693.28;5069377;28;20020;-72
2022/02/22 08:11:32;;;;;;;33.97;10.50;;;;;;;3.34;100.00;101688.19;5070205;28;20028;-72
2022/02/22 08:14:00;;;;;;;35.20;11.00;;;;;;;3.47;100.00;101694.91;5070085;28;20028;-72
2022/02/22 08:16:27;;;;;;;39.10;10.52;;;;;;;3.61;100.00;101690.28;5069949;28;20062;-71
2022/02/22 08:18:53;;;;;;;35.42;10.48;;;;;;;3.72;100.00;101680.34;5070113;28;20123;-72
2022/02/22 08:21:19;;;;;;;31.42;9.82;;;;;;;3.82;100.00;101682.56;5069725;28;20025;-72
2022/02/22 08:23:44;;;;;;;36.75;10.02;;;;;;;3.91;100.00;101679.47;5068880;28;20029;-72
2022/02/22 08:26:10;;;;;;;33.63;9.90;;;;;;;4.01;100.00;101681.66;5070851;28;20036;-71
2022/02/22 08:28:35;;;;;;;34.33;9.60;;;;;;;4.12;100.00;101687.34;5069943;28;20032;-70
2022/02/22 08:31:00;;;;;;;32.67;9.02;;;;;;;4.21;100.00;101677.31;5070009;28;20071;-71
2022/02/22 08:33:26;;;;;;;35.05;9.13;;;;;;;4.31;100.00;101674.25;5070499;28;20028;-70
2022/02/22 08:35:51;;;;;;;35.72;9.30;;;;;;;4.42;100.00;101664.22;5070631;28;20020;-71
2022/02/22 08:38:17;;;;;;;31.17;8.30;;;;;;;4.51;100.00;101672.50;5070475;28;20052;-71
2022/02/22 08:40:42;;;;;;;31.95;8.88;;;;;;;4.51;100.00;101680.34;5066975;28;20470;-70
2022/02/22 08:43:08;;;;;;;33.17;8.65;;;;;;;4.54;100.00;101671.69;5069141;28;20503;-70
2022/02/22 08:45:33;;;;;;;32.72;8.40;;;;;;;4.61;100.00;101678.09;5070264;28;20045;-71
2022/02/22 08:47:59;;;;;;;35.45;8.70;;;;;;;4.67;100.00;101674.00;5070275;28;20033;-70
2022/02/22 08:50:25;;;;;;;33.95;8.18;;;;;;;4.73;100.00;101662.88;5070258;28;20025;-71
2022/02/22 08:52:50;;;;;;;30.48;8.10;;;;;;;4.79;100.00;101662.25;5068823;28;20021;-71
2022/02/22 08:55:16;;;;;;;31.83;8.85;;;;;;;4.85;100.00;101668.66;5070513;28;20481;-71
2022/02/22 08:57:41;;;;;;;29.33;7.88;;;;;;;4.91;100.00;101661.84;5070291;28;20056;-71
2022/02/22 09:00:10;;;;;;;32.58;8.90;;;;;;;5.03;100.00;101667.59;5070010;28;20024;-71
2022/02/22 09:02:37;;;;;;;31.10;9.00;;;;;;;5.06;100.00;101663.38;5069933;28;20043;-70
2022/02/22 09:05:03;;;;;;;29.15;8.18;;;;;;;5.16;100.00;101659.38;5070367;28;20036;-70
2022/02/22 09:07:28;;;;;;;31.33;7.95;;;;;;;5.15;100.00;101646.22;5070181;28;20031;-70
2022/02/22 09:09:53;;;;;;;33.38;8.65;;;;;;;5.22;100.00;101646.50;5070143;28;20025;-70
2022/02/22 09:12:19;;;;;;;32.35;8.30;;;;;;;5.31;100.00;101626.75;5069887;28;20021;-71
2022/02/22 09:14:44;;;;;;;33.17;8.73;;;;;;;5.36;100.00;101626.09;5070662;28;20017;-70
2022/02/22 09:17:09;;;;;;;33.85;8.20;;;;;;;5.35;100.00;101624.28;5072674;28;20441;-71
2022/02/22 09:19:35;;;;;;;31.83;8.90;;;;;;;5.43;100.00;101626.31;5074259;28;20021;-70
2022/02/22 09:22:00;;;;;;;35.90;8.80;;;;;;;5.46;100.00;101610.69;5070736;28;20021;-70
2022/02/22 09:24:26;;;;;;;31.77;8.45;;;;;;;5.45;100.00;101608.91;5073912;28;20032;-72
2022/02/22 09:26:51;;;;;;;34.88;9.02;;;;;;;5.43;100.00;101606.22;5074426;28;20063;-72
2022/02/22 09:29:16;;;;;;;31.65;8.45;;;;;;;5.46;100.00;101602.81;5073936;28;20024;-74
2022/02/22 09:31:42;;;;;;;33.13;8.90;;;;;;;5.45;100.00;101603.69;5073503;28;20027;-73
2022/02/22 09:34:07;;;;;;;34.38;8.40;;;;;;;5.46;100.00;101592.31;5074269;28;20025;-73
2022/02/22 09:36:32;;;;;;;33.65;8.32;;;;;;;5.53;100.00;101584.75;5073354;28;20028;-74
2022/02/22 09:38:58;;;;;;;35.05;7.93;;;;;;;5.55;100.00;101574.31;5073197;28;20025;-75
2022/02/22 09:41:23;;;;;;;30.95;7.90;;;;;;;5.55;100.00;101575.22;5072876;28;20485;-76
2022/02/22 09:43:48;;;;;;;31.67;8.02;;;;;;;5.65;100.00;101591.28;5073140;28;20045;-75
2022/02/22 09:46:14;;;;;;;31.65;8.25;;;;;;;5.62;100.00;101588.53;5070889;28;20368;-75
2022/02/22 09:48:39;;;;;;;32.97;7.68;;;;;;;5.61;100.00;101574.53;5073383;28;20051;-74
2022/02/22 09:51:05;;;;;;;34.25;8.88;;;;;;;5.61;100.00;101589.38;5072819;28;20059;-73
2022/02/22 09:53:30;;;;;;;31.20;7.90;;;;;;;5.64;100.00;101589.50;5073383;28;20078;-75
2022/02/22 09:55:58;;;;;;;32.58;7.80;;;;;;;5.68;100.00;101588.75;5073101;28;20040;-74
2022/02/22 09:58:24;;;;;;;33.47;8.07;;;;;;;5.75;100.00;101598.63;5070454;28;20095;-76
2022/02/22 10:01:00;;;;;;;33.80;8.20;;;;;;;5.74;100.00;101605.63;5073247;28;20173;-73
2022/02/22 10:03:26;;;;;;;28.63;6.82;;;;;;;5.80;100.00;101617.19;5072657;28;20035;-75
2022/02/22 10:05:56;;;;;;;32.75;7.70;;;;;;;5.89;100.00;101615.78;5073364;28;20020;-75
2022/02/22 10:08:31;;;;;;;31.00;7.13;;;;;;;5.90;100.00;101629.81;5070379;28;20020;-72
2022/02/22 10:11:10;;;;;;;29.17;7.97;;;;;;;5.89;100.00;101630.63;5072616;28;20025;-72
2022/02/22 10:13:36;;;;;;;32.45;7.72;;;;;;;5.94;100.00;101611.59;5072072;28;20017;-72
2022/02/22 10:16:12;;;;;;;31.05;7.18;;;;;;;6.00;100.00;101605.72;5073034;28;20082;-72
2022/02/22 10:18:48;;;;;;;29.15;7.50;;;;;;;5.99;100.00;101610.91;5073105;28;20031;-73
2022/02/22 10:21:13;;;;;;;33.72;8.23;;;;;;;5.99;100.00;101609.16;5071852;28;20063;-73
2022/02/22 10:23:38;;;;;;;35.33;7.70;;;;;;;6.02;100.00;101595.25;5073133;28;20457;-70
2022/02/22 10:26:04;;;;;;;32.80;7.97;;;;;;;6.02;100.00;101582.13;5072276;28;20016;-71
2022/02/22 10:28:29;;;;;;;31.77;8.80;;;;;;;6.07;100.00;101555.22;5071100;28;20048;-73
2022/02/22 10:30:55;;;;;;;33.15;8.25;;;;;;;6.20;100.00;101540.72;5071186;28;20032;-72
2022/02/22 10:33:25;;;;;;;34.28;8.60;;;;;;;6.38;100.00;101547.47;5071379;28;20048;-70
2022/02/22 10:36:04;;;;;;;33.65;8.65;;;;;;;6.43;100.00;101541.50;5071255;28;20034;-71
2022/02/22 10:38:35;;;;;;;40.70;9.38;;;;;;;6.51;100.00;101541.75;5070710;28;20034;-69
2022/02/22 10:41:03;;;;;;;37.97;8.93;;;;;;;6.57;100.00;101526.19;5072001;28;20028;-70
2022/02/22 10:43:35;;;;;;;34.42;8.70;;;;;;;6.60;100.00;101517.53;5072358;28;20074;-70
2022/02/22 10:46:06;;;;;;;39.33;9.13;;;;;;;6.64;100.00;101529.91;5072521;28;20104;-69
2022/02/22 10:48:40;;;;;;;35.80;9.13;;;;;;;6.70;100.00;101527.47;5072386;28;20041;-69
2022/02/22 10:51:09;;;;;;;37.95;9.70;;;;;;;6.67;100.00;101521.22;5072168;28;20033;-71
2022/02/22 10:53:48;;;;;;;37.20;9.13;;;;;;;6.66;100.00;101519.44;5072277;28;20024;-70
2022/02/22 10:56:16;;;;;;;35.97;9.40;;;;;;;6.69;100.00;101514.28;5072242;28;20043;-69
2022/02/22 10:58:45;;;;;;;36.30;9.43;;;;;;;6.70;100.00;101519.59;5072096;28;20475;-70
2022/02/22 11:01:13;;;;;;;36.90;9.38;;;;;;;6.62;100.00;101524.56;5071073;28;20105;-72
2022/02/22 11:03:42;;;;;;;38.35;9.45;;;;;;;6.55;100.00;101521.72;5070812;28;20025;-71
2022/02/22 11:06:09;;;;;;;41.88;9.95;;;;;;;6.41;100.00;101523.94;5071981;28;20033;-71
2022/02/22 11:08:38;;;;;;;37.90;9.00;;;;;;;6.29;100.00;101537.53;5071615;28;20013;-71
2022/02/22 11:11:20;;;;;;;35.70;9.18;;;;;;;6.10;100.00;101522.91;5070129;28;20094;-71